الصفحة الرئيسية
METAR-TAF:

METAR-TAF

مطار :

Limon Municipal Airport

Limon, كولورادو, الولايات المتحدة

دائرة عرض: 39-16-24N, خط طول: 103-40-00W, ارتفاع: 1635 متر

مراقبة الطقس الحالي

تاريخ ووقت الإصدار 40 دقيقة قبل الساعة 01:55UTC
ريح 12 عقدة من الشرق/الجنوب الشرقي
درجة الحرارة 23°درجة مئوية
الرطوبة 31%
ضغط 1016 hPa
الرؤية: 16.1 كم
سماء صافية

METAR: KLIC 260155Z AUTO 11012KT 10SM CLR 23/05 A3000 RMK AO2 SLP082 T02330050

زمن: 20:35 (02:35 UTC)


TAF: مفقودة

أرصاد الطقس والتوقعات من أكثر من 4000 مطار (تقارير الطقس للمطار METAR والتنبؤ بالطقس بالمطارTAF).

المحطات المتاحة هي النقط الصفراء والحمراء على الخريطة.

حرك المؤشر فوق النقطة لمعرفة اسم المحطة.

ثم انقر لمعرفة أرصاد وتوقعات الطقس.

لتغيير الخارطة: اضغط على الأزرار الخضراء مع رمز الصليب الأسود للتكبير. على الزر الأخضر مع شرطة للتصغير، أو على الأسهم الخضراء للخرائط المجاورة.


METAR-TAF: